createdAt,value
2023-04-09T00:01:08.849Z,15.45
2023-04-09T00:03:36.771Z,20.20
2023-04-09T00:06:04.826Z,16.73
2023-04-09T00:08:31.748Z,16.42
2023-04-09T00:10:59.398Z,16.27
2023-04-09T00:13:38.660Z,16.25
2023-04-09T00:16:07.085Z,16.85
2023-04-09T00:18:34.297Z,19.00
2023-04-09T00:21:01.208Z,14.57
2023-04-09T00:23:28.209Z,16.38
2023-04-09T00:25:55.343Z,18.25
2023-04-09T00:28:22.302Z,19.52
2023-04-09T00:30:49.349Z,17.67
2023-04-09T00:33:16.244Z,17.67
2023-04-09T00:35:43.282Z,16.65
2023-04-09T00:38:10.432Z,22.33
2023-04-09T00:40:37.421Z,14.70
2023-04-09T00:43:04.520Z,19.25
2023-04-09T00:45:31.920Z,18.73
2023-04-09T00:47:59.092Z,17.13
2023-04-09T00:50:26.128Z,14.45
2023-04-09T00:52:53.092Z,18.80
2023-04-09T00:55:22.456Z,16.10
2023-04-09T00:57:49.879Z,16.40
2023-04-09T01:00:17.014Z,13.93
2023-04-09T01:02:45.000Z,23.95
2023-04-09T01:05:13.048Z,18.35
2023-04-09T01:08:11.506Z,16.95
2023-04-09T01:10:44.738Z,13.82
2023-04-09T01:13:39.715Z,19.00
2023-04-09T01:16:10.721Z,25.90
2023-04-09T01:18:56.598Z,18.27
2023-04-09T01:21:27.980Z,14.23
2023-04-09T01:24:13.525Z,17.52
2023-04-09T01:27:06.081Z,18.33
2023-04-09T01:29:46.334Z,14.73
2023-04-09T01:32:16.640Z,13.57
2023-04-09T01:34:47.733Z,23.48
2023-04-09T01:37:16.911Z,16.08
2023-04-09T01:39:44.410Z,18.83
2023-04-09T01:42:12.686Z,14.38
2023-04-09T01:44:41.104Z,14.95
2023-04-09T01:47:08.973Z,17.08
2023-04-09T01:49:37.673Z,13.50
2023-04-09T01:52:05.272Z,13.73
2023-04-09T01:54:33.029Z,14.75
2023-04-09T01:57:00.020Z,15.45
2023-04-09T01:59:27.028Z,17.05
2023-04-09T02:02:01.334Z,13.90
2023-04-09T02:04:35.607Z,12.48
2023-04-09T02:07:10.140Z,15.45
2023-04-09T02:09:39.342Z,13.75
2023-04-09T02:12:14.357Z,13.10
2023-04-09T02:14:42.644Z,12.95
2023-04-09T02:17:11.354Z,12.10
2023-04-09T02:19:46.606Z,11.52
2023-04-09T02:22:15.092Z,13.18
2023-04-09T02:24:42.129Z,12.02
2023-04-09T02:27:09.114Z,12.55
2023-04-09T02:29:37.366Z,11.63
2023-04-09T02:32:04.432Z,10.40
2023-04-09T02:34:31.518Z,13.25
2023-04-09T02:36:58.509Z,13.00
2023-04-09T02:39:25.498Z,14.02
2023-04-09T02:41:52.769Z,12.02
2023-04-09T02:44:19.744Z,12.52
2023-04-09T02:46:47.515Z,12.75
2023-04-09T02:49:14.589Z,15.18
2023-04-09T02:51:41.698Z,11.15
2023-04-09T02:54:08.714Z,11.02
2023-04-09T02:56:35.766Z,12.13
2023-04-09T02:59:02.797Z,10.65
2023-04-09T03:01:29.797Z,12.02
2023-04-09T03:03:56.965Z,11.02
2023-04-09T03:06:23.888Z,10.75
2023-04-09T03:08:51.581Z,12.95
2023-04-09T03:11:22.062Z,11.88
2023-04-09T03:13:49.091Z,12.15
2023-04-09T03:16:16.111Z,14.98
2023-04-09T03:18:43.798Z,11.35
2023-04-09T03:21:11.622Z,13.43
2023-04-09T03:23:47.063Z,13.57
2023-04-09T03:26:14.205Z,10.63
2023-04-09T03:31:14.993Z,11.88
2023-04-09T03:33:43.389Z,13.70
2023-04-09T03:36:11.454Z,14.80
2023-04-09T03:38:56.837Z,12.75
2023-04-09T03:41:29.657Z,11.90
2023-04-09T03:43:59.104Z,11.95
2023-04-09T03:46:31.673Z,12.68
2023-04-09T03:49:00.651Z,13.20
2023-04-09T03:51:36.661Z,12.52
2023-04-09T03:54:04.577Z,13.65
2023-04-09T03:56:32.020Z,12.85
2023-04-09T03:58:58.949Z,13.50
2023-04-09T04:01:35.204Z,12.00
2023-04-09T04:04:02.954Z,13.63
2023-04-09T04:06:37.316Z,12.38
2023-04-09T04:09:33.365Z,12.45
2023-04-09T04:12:05.365Z,12.85
2023-04-09T04:14:55.071Z,12.52
2023-04-09T04:17:31.924Z,12.65
2023-04-09T04:20:00.404Z,14.55
2023-04-09T04:22:27.655Z,12.85
2023-04-09T04:24:58.822Z,10.55
2023-04-09T04:27:25.957Z,13.25
2023-04-09T04:29:54.170Z,12.25
2023-04-09T04:32:33.332Z,9.95
2023-04-09T04:35:05.288Z,10.07
2023-04-09T04:37:32.596Z,9.27
2023-04-09T04:40:05.423Z,12.02
2023-04-09T04:42:36.185Z,10.68
2023-04-09T04:45:10.314Z,11.15
2023-04-09T04:47:45.956Z,12.43
2023-04-09T04:50:14.074Z,10.45
2023-04-09T04:52:53.261Z,10.55
2023-04-09T04:55:22.889Z,9.30
2023-04-09T04:57:52.626Z,10.40
2023-04-09T05:00:23.310Z,12.82
2023-04-09T05:02:50.994Z,10.48
2023-04-09T05:05:24.330Z,10.63
2023-04-09T05:07:56.616Z,13.02
2023-04-09T05:10:23.989Z,10.60
2023-04-09T05:12:51.022Z,9.80
2023-04-09T05:15:26.298Z,9.15
2023-04-09T05:17:53.474Z,10.32
2023-04-09T05:20:20.543Z,12.23
2023-04-09T05:23:01.937Z,12.75
2023-04-09T05:25:33.226Z,13.00
2023-04-09T05:28:02.009Z,11.00
2023-04-09T05:30:30.718Z,13.65
2023-04-09T05:33:01.329Z,11.57
2023-04-09T05:35:28.964Z,10.80
2023-04-09T05:37:56.304Z,12.65
2023-04-09T05:40:23.352Z,10.50
2023-04-09T05:42:52.350Z,11.05
2023-04-09T05:45:32.431Z,9.40
2023-04-09T05:47:59.566Z,12.32
2023-04-09T05:50:26.738Z,10.60
2023-04-09T05:52:55.231Z,11.07
2023-04-09T05:55:27.574Z,10.18
2023-04-09T05:57:58.989Z,9.55
2023-04-09T06:00:26.728Z,11.55
2023-04-09T06:02:53.725Z,8.35
2023-04-09T06:05:20.782Z,10.18
2023-04-09T06:07:48.268Z,9.68
2023-04-09T06:10:15.519Z,12.25
2023-04-09T06:12:42.601Z,8.35
2023-04-09T06:15:09.980Z,10.35
2023-04-09T06:17:36.942Z,9.38
2023-04-09T06:20:04.259Z,8.77
2023-04-09T06:22:31.203Z,11.10
2023-04-09T06:24:58.124Z,9.00
2023-04-09T06:27:25.175Z,9.40
2023-04-09T06:29:52.117Z,8.05
2023-04-09T06:32:19.060Z,9.80
2023-04-09T06:34:46.210Z,9.35
2023-04-09T16:01:45.977Z,10.02
2023-04-09T16:04:12.982Z,12.13
2023-04-09T16:06:40.131Z,9.32
2023-04-09T16:09:07.341Z,15.80
2023-04-09T16:11:36.330Z,10.20
2023-04-09T16:14:03.855Z,10.18
2023-04-09T16:16:30.818Z,10.43
2023-04-09T16:18:57.904Z,11.82
2023-04-09T16:21:24.839Z,10.10
2023-04-09T16:23:51.843Z,8.60
2023-04-09T16:26:19.017Z,9.13
2023-04-09T16:28:46.125Z,10.00
2023-04-09T16:31:13.264Z,9.50
2023-04-09T16:33:40.255Z,9.15
2023-04-09T16:36:07.658Z,8.13
2023-04-09T16:38:34.741Z,11.15
2023-04-09T16:41:01.701Z,8.52
2023-04-09T16:43:29.803Z,8.75
2023-04-09T16:45:57.170Z,7.95
2023-04-09T16:48:24.231Z,12.95
2023-04-09T16:50:51.221Z,8.90
2023-04-09T16:53:18.239Z,8.80
2023-04-09T16:55:45.581Z,8.43
2023-04-09T16:58:12.656Z,15.27
2023-04-09T17:00:40.144Z,7.25
2023-04-09T17:03:07.410Z,9.35
2023-04-09T17:05:34.826Z,7.75
2023-04-09T17:08:01.854Z,7.72
2023-04-09T17:10:28.930Z,8.60
2023-04-09T17:12:56.433Z,6.57
2023-04-09T17:15:25.105Z,8.43
2023-04-09T17:17:53.669Z,7.72
2023-04-09T17:20:22.726Z,9.07
2023-04-09T17:22:49.815Z,7.45
2023-04-09T17:25:17.103Z,7.57
2023-04-09T17:27:45.480Z,7.45
2023-04-09T17:30:12.647Z,7.15
2023-04-09T17:32:40.486Z,7.97
2023-04-09T17:35:08.238Z,7.45
2023-04-09T17:37:38.594Z,8.45
2023-04-09T17:40:06.605Z,6.78
2023-04-09T17:42:33.659Z,7.50
2023-04-09T17:45:00.940Z,7.32
2023-04-09T17:47:27.988Z,10.40
2023-04-09T17:49:54.973Z,8.13
2023-04-09T17:52:22.498Z,9.00
2023-04-09T17:54:50.904Z,8.43
2023-04-09T17:57:18.491Z,8.10
2023-04-09T17:59:45.512Z,10.52
2023-04-09T18:02:12.797Z,16.10
2023-04-09T18:04:40.303Z,10.98
2023-04-09T18:07:07.869Z,13.88
2023-04-09T18:09:34.846Z,15.88
2023-04-09T18:12:02.736Z,11.55
2023-04-09T18:14:32.397Z,13.30
2023-04-09T18:16:59.749Z,12.02
2023-04-09T18:19:26.685Z,17.83
2023-04-09T18:21:53.630Z,15.30
2023-04-09T18:24:20.579Z,19.10
2023-04-09T18:26:47.578Z,15.45
2023-04-09T18:29:14.661Z,16.42
2023-04-09T18:31:41.678Z,12.90
2023-04-09T18:34:08.707Z,13.60
2023-04-09T18:36:35.772Z,12.93
2023-04-09T18:39:04.948Z,13.70
2023-04-09T18:41:32.334Z,12.32
2023-04-09T18:43:59.459Z,9.43
2023-04-09T18:46:26.957Z,9.27
2023-04-09T18:48:54.072Z,12.23
2023-04-09T18:51:21.525Z,11.35
2023-04-09T18:53:52.923Z,10.65
2023-04-09T18:56:21.134Z,12.98
2023-04-09T18:58:48.650Z,7.95
2023-04-09T19:01:17.481Z,10.93
2023-04-09T19:03:46.230Z,10.00
2023-04-09T19:06:17.650Z,12.65
2023-04-09T19:08:50.118Z,10.70
2023-04-09T19:11:17.225Z,14.93
2023-04-09T19:13:44.148Z,10.13
2023-04-09T19:16:11.426Z,12.55
2023-04-09T19:18:38.690Z,9.48
2023-04-09T19:21:07.509Z,11.07
2023-04-09T19:23:34.885Z,12.50
2023-04-09T19:26:02.800Z,9.50
2023-04-09T19:28:29.801Z,11.32
2023-04-09T19:30:59.611Z,12.25
2023-04-09T19:33:27.844Z,9.48
2023-04-09T19:35:55.890Z,9.73
2023-04-09T19:38:23.188Z,10.30
2023-04-09T19:40:50.171Z,11.13
2023-04-09T19:43:17.187Z,11.10
2023-04-09T19:45:44.458Z,11.52
2023-04-09T19:48:12.540Z,11.30
2023-04-09T19:50:46.500Z,10.55
2023-04-09T19:55:41.265Z,10.88
2023-04-09T19:58:08.247Z,10.57
2023-04-09T20:00:35.703Z,10.77
2023-04-09T20:03:03.231Z,10.32
2023-04-09T20:05:30.411Z,11.43
2023-04-09T20:07:57.499Z,11.18
2023-04-09T20:10:24.597Z,12.38
2023-04-09T20:12:52.100Z,10.90
2023-04-09T20:15:22.268Z,14.35
2023-04-09T20:17:50.586Z,9.10
2023-04-09T20:20:20.550Z,11.73
2023-04-09T20:22:55.554Z,12.18
2023-04-09T20:25:23.706Z,12.65
2023-04-09T20:27:53.310Z,12.43
2023-04-09T20:30:20.746Z,12.13
2023-04-09T20:32:49.087Z,17.23
2023-04-09T20:35:16.939Z,12.25
2023-04-09T20:37:44.187Z,17.15
2023-04-09T20:40:14.238Z,11.02
2023-04-09T20:42:41.625Z,12.65
2023-04-09T20:45:09.683Z,17.40
2023-04-09T20:47:36.875Z,15.10
2023-04-09T20:50:05.145Z,19.83
2023-04-09T20:52:32.456Z,18.40
2023-04-09T20:54:59.822Z,19.38
2023-04-09T20:57:27.321Z,16.60
2023-04-09T20:59:54.451Z,13.98
2023-04-09T21:02:21.978Z,17.67
2023-04-09T21:04:49.064Z,18.35
2023-04-09T21:07:16.225Z,14.40
2023-04-09T21:09:43.173Z,14.25
2023-04-09T21:12:10.352Z,10.55
2023-04-09T21:14:37.379Z,15.45
2023-04-09T21:17:04.395Z,10.73
2023-04-09T21:19:31.549Z,10.70
2023-04-09T21:21:58.612Z,9.90
2023-04-09T21:24:26.903Z,9.90
2023-04-09T21:26:53.867Z,10.65
2023-04-09T21:29:21.790Z,12.30
2023-04-09T21:31:49.295Z,15.18
2023-04-09T21:34:16.397Z,15.80
2023-04-09T21:36:45.239Z,12.95
2023-04-09T21:39:12.678Z,10.88
2023-04-09T21:41:39.702Z,13.02
2023-04-09T21:44:09.305Z,12.80
2023-04-09T21:46:37.370Z,13.75
2023-04-09T21:49:04.735Z,13.52
2023-04-09T21:51:32.313Z,14.00
2023-04-09T21:54:06.799Z,9.82
2023-04-09T21:56:34.472Z,12.82
2023-04-09T21:59:01.898Z,14.55
2023-04-09T22:01:31.257Z,16.85
2023-04-09T22:03:59.854Z,9.23
2023-04-09T22:06:28.767Z,10.63
2023-04-09T22:08:58.052Z,11.85
2023-04-09T22:11:29.765Z,9.48
2023-04-09T22:13:57.499Z,9.90
2023-04-09T22:16:25.543Z,19.80
2023-04-09T22:18:54.076Z,14.57
2023-04-09T22:21:21.609Z,12.35
2023-04-09T22:23:48.656Z,11.98
2023-04-09T22:26:15.792Z,9.27
2023-04-09T22:28:42.757Z,10.13
2023-04-09T22:31:09.747Z,9.98
2023-04-09T22:33:36.772Z,10.95
2023-04-09T22:36:03.899Z,12.02
2023-04-09T22:38:31.207Z,8.35
2023-04-09T22:40:58.139Z,10.98
2023-04-09T22:43:25.061Z,9.73
2023-04-09T22:45:56.112Z,12.60
2023-04-09T22:48:23.439Z,14.77
2023-04-09T22:50:51.175Z,8.55
2023-04-09T22:53:21.701Z,9.70
2023-04-09T22:55:52.521Z,10.88
2023-04-09T22:58:19.465Z,11.07
2023-04-09T23:00:47.548Z,17.40
2023-04-09T23:03:14.869Z,15.23
2023-04-09T23:05:42.251Z,12.38
2023-04-09T23:08:12.373Z,12.27
2023-04-09T23:10:39.291Z,13.00
2023-04-09T23:13:06.347Z,13.30
2023-04-09T23:15:33.254Z,14.88
2023-04-09T23:18:00.368Z,9.68
2023-04-09T23:20:27.318Z,11.95
2023-04-09T23:22:54.293Z,11.57
2023-04-09T23:25:22.518Z,10.70
2023-04-09T23:27:49.450Z,10.63
2023-04-09T23:30:17.133Z,11.85
2023-04-09T23:32:45.383Z,11.30
2023-04-09T23:35:12.768Z,13.73
2023-04-09T23:37:42.456Z,13.82
2023-04-09T23:40:10.602Z,12.85
2023-04-09T23:42:37.562Z,11.18
2023-04-09T23:45:06.248Z,12.32
2023-04-09T23:47:36.556Z,10.43
2023-04-09T23:50:07.526Z,15.77
2023-04-09T23:52:36.039Z,8.55
2023-04-09T23:55:04.460Z,8.27
2023-04-09T23:57:31.461Z,10.48
2023-04-09T23:59:58.846Z,12.02
